Time;durP1;ratioP1;P1;durP2;ratioP2;P2;SDS_P1;SDS_P2;PMS_P1;PMS_P2;Temp;Humidity;BMP_temperature;BMP_pressure;BME280_temperature;BME280_humidity;BME280_pressure;Samples;Min_cycle;Max_cycle;Signal;HPM_P1;HPM_P2
2023/03/29 00:00:20;;;;;;;3.42;1.17;;;;;;;;;;5012813;28;20029;-69
2023/03/29 00:02:47;;;;;;;3.65;2.33;;;;;;;;;;5012342;28;20117;-69
2023/03/29 00:05:14;;;;;;;3.22;1.60;;;;;;;;;;5012690;28;20026;-69
2023/03/29 00:07:40;;;;;;;3.50;1.52;;;;;;;;;;5012381;28;20038;-69
2023/03/29 00:10:08;;;;;;;2.58;1.63;;;;;;;;;;5012639;28;20029;-69
2023/03/29 00:12:35;;;;;;;1.98;1.15;;;;;;;;;;5012704;28;20034;-69
2023/03/29 00:15:01;;;;;;;3.20;1.60;;;;;;;;;;5012953;28;20106;-69
2023/03/29 00:17:27;;;;;;;1.73;1.20;;;;;;;;;;5012508;28;20072;-69
2023/03/29 00:19:53;;;;;;;2.30;1.35;;;;;;;;;;5012209;28;20022;-69
2023/03/29 00:22:20;;;;;;;2.80;1.55;;;;;;;;;;5012450;28;20095;-69
2023/03/29 00:24:47;;;;;;;2.67;1.73;;;;;;;;;;4994437;28;20026;-69
2023/03/29 00:27:14;;;;;;;3.20;1.30;;;;;;;;;;5011811;28;20387;-69
2023/03/29 00:29:40;;;;;;;4.30;1.75;;;;;;;;;;5010999;28;20543;-69
2023/03/29 00:32:06;;;;;;;2.53;1.63;;;;;;;;;;5012085;28;20038;-69
2023/03/29 00:34:34;;;;;;;2.60;1.45;;;;;;;;;;5012658;28;20026;-69
2023/03/29 00:37:00;;;;;;;2.97;1.55;;;;;;;;;;5012561;28;20048;-69
2023/03/29 00:39:27;;;;;;;3.45;1.60;;;;;;;;;;5011933;28;20021;-69
2023/03/29 00:41:53;;;;;;;2.70;1.50;;;;;;;;;;5011868;28;20168;-69
2023/03/29 00:44:37;;;;;;;3.35;1.88;;;;;;;;;;5012034;28;20437;-69
2023/03/29 00:47:03;;;;;;;2.00;1.33;;;;;;;;;;4994493;28;20038;-69
2023/03/29 00:49:29;;;;;;;3.35;1.58;;;;;;;;;;5012009;28;20429;-68
2023/03/29 00:51:56;;;;;;;2.88;1.65;;;;;;;;;;5011658;28;20030;-68
2023/03/29 00:54:22;;;;;;;3.10;1.95;;;;;;;;;;5011709;28;20109;-69
2023/03/29 00:56:48;;;;;;;3.78;1.77;;;;;;;;;;5011514;28;20498;-68
2023/03/29 00:59:18;;;;;;;2.78;1.48;;;;;;;;;;5011976;28;20022;-69
2023/03/29 01:01:56;;;;;;;2.40;1.25;;;;;;;;;;4994035;28;20032;-68
2023/03/29 01:04:22;;;;;;;3.30;1.73;;;;;;;;;;5011653;28;20100;-68
2023/03/29 01:06:53;;;;;;;3.33;1.55;;;;;;;;;;5011454;28;20417;-68
2023/03/29 01:09:21;;;;;;;2.22;1.20;;;;;;;;;;5011180;28;20028;-68
2023/03/29 01:11:51;;;;;;;2.70;1.55;;;;;;;;;;5010953;28;20057;-68
2023/03/29 01:14:29;;;;;;;2.63;1.80;;;;;;;;;;4993610;28;20022;-68
2023/03/29 01:16:55;;;;;;;2.17;1.52;;;;;;;;;;5011331;28;20413;-68
2023/03/29 01:19:25;;;;;;;2.35;1.50;;;;;;;;;;5011436;28;20076;-68
2023/03/29 01:21:54;;;;;;;2.38;1.30;;;;;;;;;;5011057;28;20033;-69
2023/03/29 01:24:26;;;;;;;3.10;1.40;;;;;;;;;;5011432;28;20022;-68
2023/03/29 01:26:58;;;;;;;5.68;1.75;;;;;;;;;;5010824;28;20045;-68
2023/03/29 01:29:27;;;;;;;3.53;1.63;;;;;;;;;;5011451;28;20051;-68
2023/03/29 01:32:03;;;;;;;2.97;1.52;;;;;;;;;;5011043;28;20474;-69
2023/03/29 01:34:42;;;;;;;3.28;1.55;;;;;;;;;;5011302;28;20497;-68
2023/03/29 01:37:14;;;;;;;2.92;1.70;;;;;;;;;;5011469;28;20485;-69
2023/03/29 01:39:40;;;;;;;2.92;1.73;;;;;;;;;;5010702;28;20022;-68
2023/03/29 01:42:14;;;;;;;2.78;1.30;;;;;;;;;;5010826;28;20033;-68
2023/03/29 01:44:43;;;;;;;3.60;1.70;;;;;;;;;;5011138;28;20021;-68
2023/03/29 01:47:27;;;;;;;3.83;2.30;;;;;;;;;;5011239;28;20125;-68
2023/03/29 01:49:59;;;;;;;2.58;1.60;;;;;;;;;;5011001;28;20034;-68
2023/03/29 01:52:29;;;;;;;1.55;1.05;;;;;;;;;;5011201;28;20516;-68
2023/03/29 01:55:02;;;;;;;2.80;1.40;;;;;;;;;;5010885;28;20362;-68
2023/03/29 01:57:30;;;;;;;2.70;1.30;;;;;;;;;;5010705;28;20026;-68
2023/03/29 01:59:57;;;;;;;2.90;1.60;;;;;;;;;;5010915;28;20030;-68
2023/03/29 02:02:24;;;;;;;2.72;1.60;;;;;;;;;;5011017;28;20033;-68
2023/03/29 02:04:52;;;;;;;2.55;1.40;;;;;;;;;;5010724;28;20101;-68
2023/03/29 02:07:20;;;;;;;2.30;1.40;;;;;;;;;;5010488;28;20450;-68
2023/03/29 02:09:47;;;;;;;2.53;1.48;;;;;;;;;;5010614;28;20068;-69
2023/03/29 02:12:15;;;;;;;3.33;1.45;;;;;;;;;;4993478;28;20053;-68
2023/03/29 02:14:41;;;;;;;4.68;1.08;;;;;;;;;;4992971;28;20029;-68
2023/03/29 02:17:21;;;;;;;3.10;1.55;;;;;;;;;;4993473;28;20041;-68
2023/03/29 02:19:50;;;;;;;2.00;1.30;;;;;;;;;;5010657;28;20018;-68
2023/03/29 02:22:22;;;;;;;2.75;1.65;;;;;;;;;;5010516;28;20029;-68
2023/03/29 02:24:49;;;;;;;2.55;1.45;;;;;;;;;;5010279;28;20034;-68
2023/03/29 02:27:15;;;;;;;2.58;1.70;;;;;;;;;;4993126;28;20034;-69
2023/03/29 02:29:41;;;;;;;2.53;1.20;;;;;;;;;;5010473;28;20022;-68
2023/03/29 02:32:14;;;;;;;3.38;1.90;;;;;;;;;;5010828;28;20030;-68
2023/03/29 02:34:46;;;;;;;2.67;1.50;;;;;;;;;;5010439;28;20080;-68
2023/03/29 02:37:14;;;;;;;3.67;1.52;;;;;;;;;;5010227;28;20061;-68
2023/03/29 02:39:40;;;;;;;3.42;1.17;;;;;;;;;;5010274;28;20036;-68
2023/03/29 02:42:07;;;;;;;1.92;1.33;;;;;;;;;;5010611;28;20076;-68
2023/03/29 02:44:36;;;;;;;2.17;1.50;;;;;;;;;;5010937;28;20428;-68
2023/03/29 02:47:03;;;;;;;2.75;1.63;;;;;;;;;;5010816;28;20056;-68
2023/03/29 02:49:29;;;;;;;3.00;1.55;;;;;;;;;;5010495;28;20076;-68
2023/03/29 02:51:57;;;;;;;4.93;1.45;;;;;;;;;;5010520;28;20124;-68
2023/03/29 02:54:28;;;;;;;2.53;1.60;;;;;;;;;;5014047;28;20474;-68
2023/03/29 02:56:56;;;;;;;2.38;1.55;;;;;;;;;;5013553;28;20030;-68
2023/03/29 02:59:22;;;;;;;2.03;1.50;;;;;;;;;;4996426;28;20022;-68
2023/03/29 03:01:48;;;;;;;2.85;1.42;;;;;;;;;;5013587;28;20032;-68
2023/03/29 03:04:14;;;;;;;3.42;1.50;;;;;;;;;;4996169;28;20069;-68
2023/03/29 03:06:41;;;;;;;3.70;1.80;;;;;;;;;;5013055;28;20109;-68
2023/03/29 03:09:08;;;;;;;2.30;1.27;;;;;;;;;;5013807;28;20080;-68
2023/03/29 03:11:34;;;;;;;3.30;1.70;;;;;;;;;;5014039;28;20033;-68
2023/03/29 03:14:00;;;;;;;4.10;1.48;;;;;;;;;;5013973;28;20037;-68
2023/03/29 03:16:26;;;;;;;3.80;1.60;;;;;;;;;;5013654;28;20048;-68
2023/03/29 03:18:54;;;;;;;2.33;1.33;;;;;;;;;;5013160;28;20671;-68
2023/03/29 03:21:20;;;;;;;2.70;1.35;;;;;;;;;;5013173;28;20113;-68
2023/03/29 03:23:47;;;;;;;2.45;1.45;;;;;;;;;;5013458;28;20133;-68
2023/03/29 03:26:14;;;;;;;2.90;1.40;;;;;;;;;;4995788;28;20025;-68
2023/03/29 03:28:40;;;;;;;2.92;1.38;;;;;;;;;;5013297;28;20026;-68
2023/03/29 03:31:06;;;;;;;2.80;1.60;;;;;;;;;;4995641;28;20489;-68
2023/03/29 03:33:32;;;;;;;1.77;1.30;;;;;;;;;;5013544;28;20105;-68
2023/03/29 03:36:01;;;;;;;3.03;1.65;;;;;;;;;;5012820;28;20092;-68
2023/03/29 03:38:31;;;;;;;2.95;1.30;;;;;;;;;;5013262;28;20034;-68
2023/03/29 03:40:57;;;;;;;2.90;1.77;;;;;;;;;;5013306;28;20428;-68
2023/03/29 03:43:23;;;;;;;2.53;1.20;;;;;;;;;;5012859;28;20030;-68
2023/03/29 03:45:49;;;;;;;3.33;1.48;;;;;;;;;;5012783;28;20034;-68
2023/03/29 03:48:16;;;;;;;3.17;1.67;;;;;;;;;;5013096;28;20517;-68
2023/03/29 03:50:46;;;;;;;3.25;1.52;;;;;;;;;;5012445;28;20504;-68
2023/03/29 03:53:12;;;;;;;8.60;2.13;;;;;;;;;;4995317;28;20048;-68
2023/03/29 03:55:38;;;;;;;3.17;1.50;;;;;;;;;;5012642;28;20478;-68
2023/03/29 03:58:06;;;;;;;2.15;1.42;;;;;;;;;;5013010;28;20026;-68
2023/03/29 04:00:32;;;;;;;3.75;1.42;;;;;;;;;;5013103;28;20017;-68
2023/03/29 04:02:58;;;;;;;2.95;1.75;;;;;;;;;;5012108;28;20477;-68
2023/03/29 04:05:24;;;;;;;2.67;1.55;;;;;;;;;;5012140;28;20037;-68
2023/03/29 04:07:51;;;;;;;3.65;1.50;;;;;;;;;;5012331;28;20556;-68
2023/03/29 04:10:17;;;;;;;1.95;1.25;;;;;;;;;;5012521;28;20183;-68
2023/03/29 04:12:43;;;;;;;2.92;1.50;;;;;;;;;;5012300;28;20073;-68
2023/03/29 04:15:10;;;;;;;2.78;1.60;;;;;;;;;;5012432;28;20362;-68
2023/03/29 04:17:37;;;;;;;2.03;1.15;;;;;;;;;;5012199;28;20054;-69
2023/03/29 04:20:09;;;;;;;2.63;1.40;;;;;;;;;;5012321;28;20057;-68
2023/03/29 04:22:35;;;;;;;2.85;1.52;;;;;;;;;;5012297;28;20056;-68
2023/03/29 04:25:02;;;;;;;2.72;1.40;;;;;;;;;;5012594;28;20029;-68
2023/03/29 04:27:27;;;;;;;2.17;1.55;;;;;;;;;;5012103;28;20037;-69
2023/03/29 04:29:53;;;;;;;2.70;1.40;;;;;;;;;;5012091;28;20053;-68
2023/03/29 04:32:19;;;;;;;1.92;1.50;;;;;;;;;;5012236;28;20050;-68
2023/03/29 04:34:45;;;;;;;2.50;1.70;;;;;;;;;;5011598;28;20034;-68
2023/03/29 04:37:11;;;;;;;2.97;1.58;;;;;;;;;;5012163;28;20037;-68
2023/03/29 04:39:37;;;;;;;2.78;1.30;;;;;;;;;;5011906;28;20026;-68
2023/03/29 04:42:04;;;;;;;2.47;1.50;;;;;;;;;;5012259;28;20497;-68
2023/03/29 04:44:32;;;;;;;2.70;1.52;;;;;;;;;;5012111;28;20423;-68
2023/03/29 04:46:59;;;;;;;2.22;1.35;;;;;;;;;;5011652;28;20073;-68
2023/03/29 04:49:25;;;;;;;4.78;1.77;;;;;;;;;;5011751;28;20037;-68
2023/03/29 04:51:52;;;;;;;2.05;1.55;;;;;;;;;;5011734;28;20022;-68
2023/03/29 04:54:18;;;;;;;2.50;1.60;;;;;;;;;;5011813;28;20026;-68
2023/03/29 04:56:44;;;;;;;3.20;1.23;;;;;;;;;;5011557;28;20037;-68
2023/03/29 04:59:10;;;;;;;2.58;1.48;;;;;;;;;;5011726;28;20024;-69
2023/03/29 05:01:36;;;;;;;2.42;1.50;;;;;;;;;;5011038;28;20389;-68
2023/03/29 05:04:02;;;;;;;2.15;1.60;;;;;;;;;;5011801;28;20092;-68
2023/03/29 05:06:28;;;;;;;2.13;1.10;;;;;;;;;;5011100;28;20060;-68
2023/03/29 05:08:54;;;;;;;2.05;1.25;;;;;;;;;;5011219;28;20104;-68
2023/03/29 05:11:23;;;;;;;3.25;1.30;;;;;;;;;;5011531;28;20022;-68
2023/03/29 05:13:49;;;;;;;2.92;1.70;;;;;;;;;;5011461;28;20440;-69
2023/03/29 05:16:15;;;;;;;2.83;1.67;;;;;;;;;;5011137;28;20097;-68
2023/03/29 05:18:41;;;;;;;2.33;1.27;;;;;;;;;;5011507;28;20025;-68
2023/03/29 05:21:08;;;;;;;2.15;1.30;;;;;;;;;;5011312;28;20424;-68
2023/03/29 05:23:34;;;;;;;1.85;1.08;;;;;;;;;;5011689;28;20029;-68
2023/03/29 05:26:01;;;;;;;1.98;1.30;;;;;;;;;;5011727;28;20420;-68
2023/03/29 05:28:27;;;;;;;2.00;1.35;;;;;;;;;;5011624;28;20044;-68
2023/03/29 05:31:04;;;;;;;1.98;1.23;;;;;;;;;;5011567;28;20033;-68
2023/03/29 05:33:30;;;;;;;4.88;1.50;;;;;;;;;;5010563;28;20040;-68
2023/03/29 05:36:00;;;;;;;2.70;1.48;;;;;;;;;;5011310;28;20505;-68
2023/03/29 05:38:26;;;;;;;3.20;1.70;;;;;;;;;;5011419;28;20026;-68
2023/03/29 05:40:52;;;;;;;3.30;1.63;;;;;;;;;;5011224;28;20030;-68
2023/03/29 05:43:18;;;;;;;2.42;1.38;;;;;;;;;;5008165;28;20040;-67
2023/03/29 05:45:44;;;;;;;1.83;1.33;;;;;;;;;;5001642;28;20034;-67
2023/03/29 05:48:10;;;;;;;2.75;1.50;;;;;;;;;;5009701;28;20486;-66
2023/03/29 05:50:36;;;;;;;2.58;1.50;;;;;;;;;;5009711;28;20022;-66
2023/03/29 05:53:02;;;;;;;3.45;1.75;;;;;;;;;;5000136;28;20113;-65
2023/03/29 05:55:28;;;;;;;2.90;1.70;;;;;;;;;;5011143;28;20030;-66
2023/03/29 05:57:55;;;;;;;1.98;1.20;;;;;;;;;;5010657;28;20030;-67
2023/03/29 06:00:25;;;;;;;2.58;1.38;;;;;;;;;;5011164;28;20105;-68
2023/03/29 06:02:52;;;;;;;2.50;1.52;;;;;;;;;;5016747;28;20370;-66
2023/03/29 06:05:19;;;;;;;2.88;1.35;;;;;;;;;;5030773;28;20037;-68
2023/03/29 06:07:47;;;;;;;2.30;1.27;;;;;;;;;;5030652;28;20037;-65
2023/03/29 06:10:14;;;;;;;4.15;2.17;;;;;;;;;;5010397;28;20101;-65
2023/03/29 06:12:40;;;;;;;2.17;1.42;;;;;;;;;;4991258;28;20050;-65
2023/03/29 06:15:07;;;;;;;3.58;1.40;;;;;;;;;;5005748;28;20018;-66
2023/03/29 06:17:33;;;;;;;3.28;1.50;;;;;;;;;;5007558;28;20033;-65
2023/03/29 06:19:59;;;;;;;5.10;3.40;;;;;;;;;;5001240;28;20493;-65
2023/03/29 06:22:26;;;;;;;10.23;5.80;;;;;;;;;;5010290;28;20036;-65
2023/03/29 06:24:53;;;;;;;10.80;7.90;;;;;;;;;;5003750;28;20026;-65
2023/03/29 06:27:19;;;;;;;10.25;7.57;;;;;;;;;;5011989;28;20034;-66
2023/03/29 06:29:45;;;;;;;13.02;8.93;;;;;;;;;;5014379;28;20036;-65
2023/03/29 06:32:11;;;;;;;10.23;7.72;;;;;;;;;;5014831;28;20023;-65
2023/03/29 06:34:37;;;;;;;13.20;9.88;;;;;;;;;;5014596;28;20061;-65
2023/03/29 06:37:04;;;;;;;11.75;8.68;;;;;;;;;;5012733;28;20029;-65
2023/03/29 06:39:31;;;;;;;10.82;8.00;;;;;;;;;;5011199;28;20029;-65
2023/03/29 06:41:58;;;;;;;11.30;8.75;;;;;;;;;;5011840;28;20038;-65
2023/03/29 06:44:27;;;;;;;12.80;7.65;;;;;;;;;;5014163;28;20026;-66
2023/03/29 06:46:53;;;;;;;12.00;9.10;;;;;;;;;;5013930;28;20076;-65
2023/03/29 06:49:19;;;;;;;12.10;7.95;;;;;;;;;;5014210;28;20058;-64
2023/03/29 06:51:45;;;;;;;13.40;8.70;;;;;;;;;;5014198;28;20034;-65
2023/03/29 06:54:12;;;;;;;11.38;8.38;;;;;;;;;;5024260;28;20026;-65
2023/03/29 06:56:38;;;;;;;11.90;8.15;;;;;;;;;;5013982;28;20444;-65
2023/03/29 06:59:04;;;;;;;12.10;7.63;;;;;;;;;;5014014;28;20030;-66
2023/03/29 07:01:31;;;;;;;10.82;7.10;;;;;;;;;;5014142;28;20053;-65
2023/03/29 07:04:03;;;;;;;9.73;7.13;;;;;;;;;;5013928;28;20038;-65
2023/03/29 07:06:29;;;;;;;9.95;6.88;;;;;;;;;;5013900;28;20033;-65
2023/03/29 07:08:58;;;;;;;9.50;6.70;;;;;;;;;;5013801;28;20200;-65
2023/03/29 07:11:24;;;;;;;11.93;6.70;;;;;;;;;;5013833;28;20033;-66
2023/03/29 07:13:51;;;;;;;8.48;6.28;;;;;;;;;;5013645;28;20053;-66
2023/03/29 07:16:18;;;;;;;9.85;7.05;;;;;;;;;;5013717;28;20062;-66
2023/03/29 07:18:44;;;;;;;9.18;6.93;;;;;;;;;;5013652;28;20036;-66
2023/03/29 07:21:11;;;;;;;9.73;6.75;;;;;;;;;;5011886;28;20026;-66
2023/03/29 07:23:38;;;;;;;9.82;6.45;;;;;;;;;;5011372;28;20211;-66
2023/03/29 07:26:06;;;;;;;10.38;6.38;;;;;;;;;;5012066;28;20053;-66
2023/03/29 07:28:32;;;;;;;11.25;6.35;;;;;;;;;;5013645;28;20505;-66
2023/03/29 07:31:06;;;;;;;8.77;5.50;;;;;;;;;;5013312;28;20021;-66
2023/03/29 07:33:33;;;;;;;8.57;6.25;;;;;;;;;;5024076;28;20056;-66
2023/03/29 07:35:59;;;;;;;8.52;5.95;;;;;;;;;;5018212;28;20087;-66
2023/03/29 07:38:26;;;;;;;9.02;6.38;;;;;;;;;;5012558;28;20044;-66
2023/03/29 07:40:53;;;;;;;8.70;5.90;;;;;;;;;;5013100;28;20026;-66
2023/03/29 07:43:19;;;;;;;9.43;5.47;;;;;;;;;;5013040;28;20044;-66
2023/03/29 07:45:45;;;;;;;8.25;5.63;;;;;;;;;;5013003;28;20026;-66
2023/03/29 07:48:12;;;;;;;7.75;5.20;;;;;;;;;;5012793;28;20046;-66
2023/03/29 07:50:38;;;;;;;7.63;5.70;;;;;;;;;;4995448;28;20053;-67
2023/03/29 07:53:04;;;;;;;9.43;5.90;;;;;;;;;;5013381;28;20030;-67
2023/03/29 07:55:30;;;;;;;7.97;5.20;;;;;;;;;;5012607;28;20026;-67
2023/03/29 07:57:56;;;;;;;7.50;5.15;;;;;;;;;;5012728;28;20401;-66
2023/03/29 08:00:23;;;;;;;8.90;5.50;;;;;;;;;;5012616;28;20029;-67
2023/03/29 08:02:51;;;;;;;7.05;4.82;;;;;;;;;;5011803;28;20061;-67
2023/03/29 08:05:17;;;;;;;8.27;5.22;;;;;;;;;;5012486;28;20385;-67
2023/03/29 08:07:44;;;;;;;9.48;5.05;;;;;;;;;;5012527;28;20048;-67
2023/03/29 08:10:12;;;;;;;11.38;5.53;;;;;;;;;;5012830;28;20132;-67
2023/03/29 08:12:40;;;;;;;8.10;4.75;;;;;;;;;;5012565;28;20034;-65
2023/03/29 08:15:06;;;;;;;8.68;4.50;;;;;;;;;;5012726;28;20026;-66
2023/03/29 08:17:33;;;;;;;7.90;5.05;;;;;;;;;;5012632;28;20034;-68
2023/03/29 08:20:00;;;;;;;8.18;4.78;;;;;;;;;;5011924;28;20025;-68
2023/03/29 08:22:26;;;;;;;8.40;4.85;;;;;;;;;;5012380;28;20037;-68
2023/03/29 08:24:52;;;;;;;7.38;4.60;;;;;;;;;;5012089;28;20531;-68
2023/03/29 08:27:18;;;;;;;8.02;5.13;;;;;;;;;;5011882;28;20188;-67
2023/03/29 08:29:44;;;;;;;6.78;4.30;;;;;;;;;;5012261;28;20030;-67
2023/03/29 08:32:10;;;;;;;6.80;4.65;;;;;;;;;;5012513;28;20093;-67
2023/03/29 08:34:37;;;;;;;7.10;4.50;;;;;;;;;;5012223;28;20052;-66
2023/03/29 08:37:03;;;;;;;7.35;3.92;;;;;;;;;;5012375;28;20038;-68
2023/03/29 08:39:30;;;;;;;7.20;4.40;;;;;;;;;;5012086;28;20076;-67
2023/03/29 08:42:14;;;;;;;6.90;4.32;;;;;;;;;;5016169;28;20107;-68
2023/03/29 08:45:00;;;;;;;5.70;3.85;;;;;;;;;;5031805;28;20504;-68
2023/03/29 08:47:26;;;;;;;5.95;4.20;;;;;;;;;;5013318;28;20405;-68
2023/03/29 08:49:53;;;;;;;5.97;3.95;;;;;;;;;;5010924;28;20470;-67
2023/03/29 08:52:30;;;;;;;6.82;3.97;;;;;;;;;;5012119;28;20112;-67
2023/03/29 08:54:58;;;;;;;9.45;4.13;;;;;;;;;;5011767;28;20028;-67
2023/03/29 08:57:27;;;;;;;8.68;4.18;;;;;;;;;;5011889;28;20040;-67
2023/03/29 08:59:54;;;;;;;7.65;3.90;;;;;;;;;;5011312;28;20495;-67
2023/03/29 09:02:25;;;;;;;5.53;3.80;;;;;;;;;;5010748;28;20061;-67
2023/03/29 09:04:52;;;;;;;9.00;4.80;;;;;;;;;;5011810;28;20030;-68
2023/03/29 09:07:18;;;;;;;6.97;4.18;;;;;;;;;;5011760;28;20026;-67
2023/03/29 09:09:44;;;;;;;5.53;3.40;;;;;;;;;;5011617;28;20030;-67
2023/03/29 09:12:23;;;;;;;6.03;3.92;;;;;;;;;;5010835;28;20018;-67
2023/03/29 09:15:10;;;;;;;6.38;4.40;;;;;;;;;;5011481;28;20026;-67
2023/03/29 09:17:39;;;;;;;7.22;4.00;;;;;;;;;;4993631;28;20390;-67
2023/03/29 09:20:23;;;;;;;7.28;3.67;;;;;;;;;;5011813;28;20394;-68
2023/03/29 09:22:59;;;;;;;5.80;3.50;;;;;;;;;;5011126;28;20022;-68
2023/03/29 09:25:40;;;;;;;6.40;3.55;;;;;;;;;;5011761;28;20033;-67
2023/03/29 09:28:20;;;;;;;7.75;4.40;;;;;;;;;;5011595;28;20501;-68
2023/03/29 09:30:53;;;;;;;4.95;3.60;;;;;;;;;;5011319;28;20018;-68
2023/03/29 09:33:19;;;;;;;5.68;3.83;;;;;;;;;;5011539;28;20052;-68
2023/03/29 09:36:02;;;;;;;5.53;3.53;;;;;;;;;;5010710;28;20489;-68
2023/03/29 09:38:30;;;;;;;5.65;3.60;;;;;;;;;;5011445;28;20055;-67
2023/03/29 09:40:59;;;;;;;6.18;3.25;;;;;;;;;;5011232;28;20026;-67
2023/03/29 09:43:32;;;;;;;6.03;3.65;;;;;;;;;;4993555;28;20041;-68
2023/03/29 09:46:01;;;;;;;5.38;3.50;;;;;;;;;;4993006;28;20087;-68
2023/03/29 09:48:29;;;;;;;5.03;3.35;;;;;;;;;;5011285;28;20046;-67
2023/03/29 09:50:55;;;;;;;7.10;3.35;;;;;;;;;;5011177;28;20033;-68
2023/03/29 09:53:21;;;;;;;6.03;2.80;;;;;;;;;;5011310;28;20072;-68
2023/03/29 09:55:48;;;;;;;5.40;3.25;;;;;;;;;;5010966;28;20045;-68
2023/03/29 09:58:16;;;;;;;4.82;3.33;;;;;;;;;;5011113;28;20437;-68
2023/03/29 10:00:43;;;;;;;5.63;3.38;;;;;;;;;;5010599;28;20025;-68
2023/03/29 10:03:16;;;;;;;5.22;3.10;;;;;;;;;;5015445;28;20044;-67
2023/03/29 10:05:44;;;;;;;7.68;4.03;;;;;;;;;;5014958;28;20049;-68
2023/03/29 10:08:33;;;;;;;5.25;3.67;;;;;;;;;;5014957;28;20038;-68
2023/03/29 10:10:59;;;;;;;5.22;3.05;;;;;;;;;;5006709;28;20441;-68
2023/03/29 10:13:33;;;;;;;5.20;2.85;;;;;;;;;;5015071;28;20033;-67
2023/03/29 10:16:02;;;;;;;5.18;3.15;;;;;;;;;;5014886;28;20033;-68
2023/03/29 10:18:29;;;;;;;4.95;2.90;;;;;;;;;;5015006;28;20033;-68
2023/03/29 10:21:03;;;;;;;5.55;3.30;;;;;;;;;;5014603;28;20025;-67
2023/03/29 10:23:33;;;;;;;6.15;3.10;;;;;;;;;;5014799;28;20109;-68
2023/03/29 10:25:59;;;;;;;4.57;2.60;;;;;;;;;;5014227;28;20017;-68
2023/03/29 10:28:26;;;;;;;5.03;2.85;;;;;;;;;;5014754;28;20042;-67
2023/03/29 10:30:56;;;;;;;4.65;2.90;;;;;;;;;;5014131;28;20076;-68
2023/03/29 10:33:23;;;;;;;5.82;3.10;;;;;;;;;;5014779;28;20034;-68
2023/03/29 10:35:49;;;;;;;4.90;2.85;;;;;;;;;;5014469;28;20049;-68
2023/03/29 10:38:19;;;;;;;4.40;2.83;;;;;;;;;;5014553;28;20036;-68
2023/03/29 10:40:47;;;;;;;4.35;3.10;;;;;;;;;;4996790;28;20097;-68
2023/03/29 10:43:19;;;;;;;4.78;3.05;;;;;;;;;;5014480;28;20096;-68
2023/03/29 10:45:49;;;;;;;4.20;2.80;;;;;;;;;;5013983;28;20037;-68
2023/03/29 10:48:16;;;;;;;4.50;2.67;;;;;;;;;;5014355;28;20065;-68
2023/03/29 10:50:47;;;;;;;3.83;2.53;;;;;;;;;;5014019;28;20026;-68
2023/03/29 10:53:23;;;;;;;4.05;2.83;;;;;;;;;;5014220;28;20033;-68
2023/03/29 10:55:56;;;;;;;4.32;2.88;;;;;;;;;;5018748;28;20025;-68
2023/03/29 10:58:42;;;;;;;3.95;2.45;;;;;;;;;;5019901;28;20030;-68
2023/03/29 11:01:13;;;;;;;3.73;2.43;;;;;;;;;;5015927;28;20025;-68
2023/03/29 11:04:02;;;;;;;4.63;3.00;;;;;;;;;;5016677;28;20276;-69
2023/03/29 11:06:38;;;;;;;3.42;2.20;;;;;;;;;;4969395;28;20082;-68
2023/03/29 11:09:13;;;;;;;3.10;2.28;;;;;;;;;;5016277;28;20042;-68
2023/03/29 11:11:57;;;;;;;5.25;2.47;;;;;;;;;;5001668;28;20057;-69
2023/03/29 11:14:32;;;;;;;5.60;2.60;;;;;;;;;;5021676;28;20443;-68
2023/03/29 11:17:01;;;;;;;4.00;2.40;;;;;;;;;;5021529;28;20032;-69
2023/03/29 11:19:45;;;;;;;6.07;2.75;;;;;;;;;;5019583;28;20424;-68
2023/03/29 11:22:30;;;;;;;5.47;3.40;;;;;;;;;;5013471;28;20030;-68
2023/03/29 11:25:06;;;;;;;4.85;2.70;;;;;;;;;;5017712;28;20413;-68
2023/03/29 11:28:05;;;;;;;5.45;2.72;;;;;;;;;;4995996;28;20033;-69
2023/03/29 11:30:41;;;;;;;7.00;3.00;;;;;;;;;;4989314;28;20038;-69
2023/03/29 11:33:23;;;;;;;4.45;2.72;;;;;;;;;;5020631;28;20034;-69
2023/03/29 11:35:55;;;;;;;8.50;3.97;;;;;;;;;;5020671;28;20017;-68
2023/03/29 11:38:24;;;;;;;9.95;3.88;;;;;;;;;;5013016;28;20048;-69
2023/03/29 11:40:54;;;;;;;7.07;3.70;;;;;;;;;;5027278;28;20032;-69
2023/03/29 11:43:30;;;;;;;5.10;2.80;;;;;;;;;;5033021;28;20115;-69
2023/03/29 11:46:01;;;;;;;6.75;2.65;;;;;;;;;;5014449;28;20026;-69
2023/03/29 11:48:39;;;;;;;7.38;3.40;;;;;;;;;;5010646;28;20045;-69
2023/03/29 11:51:10;;;;;;;6.85;3.65;;;;;;;;;;5003982;28;20032;-69
2023/03/29 11:53:42;;;;;;;6.03;3.00;;;;;;;;;;4993277;28;20041;-69
2023/03/29 11:56:12;;;;;;;6.65;3.08;;;;;;;;;;5008457;28;20058;-69
2023/03/29 11:58:40;;;;;;;9.40;3.10;;;;;;;;;;5012674;28;20072;-69
2023/03/29 12:01:10;;;;;;;4.43;2.55;;;;;;;;;;5012801;28;20100;-69
2023/03/29 12:04:08;;;;;;;6.85;3.05;;;;;;;;;;5012604;28;20363;-69
2023/03/29 12:06:39;;;;;;;4.85;2.22;;;;;;;;;;4990883;28;20148;-69
2023/03/29 12:09:25;;;;;;;6.43;2.65;;;;;;;;;;5012677;28;20030;-69
2023/03/29 12:12:17;;;;;;;6.63;2.95;;;;;;;;;;5005454;28;20044;-69
2023/03/29 12:15:02;;;;;;;5.10;2.80;;;;;;;;;;5010354;28;20065;-69
2023/03/29 12:17:52;;;;;;;3.95;2.58;;;;;;;;;;5012231;28;20575;-69
2023/03/29 12:20:18;;;;;;;6.10;2.45;;;;;;;;;;5012591;28;20109;-69
2023/03/29 12:22:45;;;;;;;6.07;2.40;;;;;;;;;;5012338;28;20113;-69
2023/03/29 12:25:15;;;;;;;3.67;2.53;;;;;;;;;;5026138;28;20052;-69
2023/03/29 12:27:48;;;;;;;4.47;2.17;;;;;;;;;;5017042;28;20037;-69
2023/03/29 12:30:35;;;;;;;3.92;2.70;;;;;;;;;;5012392;28;20029;-69
2023/03/29 12:33:02;;;;;;;4.50;2.60;;;;;;;;;;5012240;28;20518;-68
2023/03/29 12:35:58;;;;;;;4.78;2.42;;;;;;;;;;4994706;28;20084;-69
2023/03/29 12:38:28;;;;;;;4.03;2.35;;;;;;;;;;4958672;28;20122;-69
2023/03/29 12:40:56;;;;;;;2.80;1.98;;;;;;;;;;5011395;28;20039;-69
2023/03/29 12:43:32;;;;;;;3.85;2.20;;;;;;;;;;5011801;28;20030;-68
2023/03/29 12:46:04;;;;;;;3.28;2.38;;;;;;;;;;5012021;28;20025;-69
2023/03/29 12:48:30;;;;;;;4.75;2.53;;;;;;;;;;5012209;28;20453;-69
2023/03/29 12:51:05;;;;;;;4.40;2.20;;;;;;;;;;5011444;28;20419;-69
2023/03/29 12:53:35;;;;;;;3.42;2.00;;;;;;;;;;5011872;28;20116;-69
2023/03/29 12:56:07;;;;;;;3.70;2.40;;;;;;;;;;5010884;28;20075;-69
2023/03/29 12:58:41;;;;;;;4.45;2.58;;;;;;;;;;5011911;28;20030;-69
2023/03/29 13:01:25;;;;;;;4.57;2.15;;;;;;;;;;5011989;28;20028;-69
2023/03/29 13:03:54;;;;;;;4.07;2.55;;;;;;;;;;4999186;28;20034;-69
2023/03/29 13:06:30;;;;;;;5.07;2.80;;;;;;;;;;4992055;28;20015;-69
2023/03/29 13:09:04;;;;;;;4.18;2.70;;;;;;;;;;4996156;28;20109;-69
2023/03/29 13:11:34;;;;;;;4.95;2.38;;;;;;;;;;5006518;28;20108;-69
2023/03/29 13:14:02;;;;;;;4.85;2.35;;;;;;;;;;5011956;28;20097;-69
2023/03/29 13:16:30;;;;;;;3.47;2.40;;;;;;;;;;5010854;28;20041;-69
2023/03/29 13:19:02;;;;;;;4.80;2.33;;;;;;;;;;5011139;28;20088;-69
2023/03/29 13:21:41;;;;;;;3.88;1.92;;;;;;;;;;5018794;28;20037;-69
2023/03/29 13:24:13;;;;;;;4.78;3.08;;;;;;;;;;5031335;28;20017;-69
2023/03/29 13:26:54;;;;;;;5.95;2.80;;;;;;;;;;5030886;28;20036;-69
2023/03/29 13:29:33;;;;;;;3.42;2.08;;;;;;;;;;5031155;28;20026;-69
2023/03/29 13:32:11;;;;;;;4.53;2.17;;;;;;;;;;5030351;28;20028;-68
2023/03/29 13:34:37;;;;;;;4.63;2.40;;;;;;;;;;5011257;28;20052;-68
2023/03/29 13:37:03;;;;;;;3.63;2.08;;;;;;;;;;5011158;28;20022;-69
2023/03/29 13:39:31;;;;;;;4.22;2.60;;;;;;;;;;5011226;28;20474;-69
2023/03/29 13:42:08;;;;;;;3.53;2.28;;;;;;;;;;5011038;28;20117;-69
2023/03/29 13:44:47;;;;;;;2.83;2.10;;;;;;;;;;5009524;28;20030;-69
2023/03/29 13:47:16;;;;;;;3.10;2.28;;;;;;;;;;4992911;28;20379;-69
2023/03/29 13:49:44;;;;;;;3.88;2.20;;;;;;;;;;5011146;28;20024;-69
2023/03/29 13:52:22;;;;;;;4.00;2.42;;;;;;;;;;5009237;28;20111;-68
2023/03/29 13:55:09;;;;;;;4.38;2.42;;;;;;;;;;5007003;28;20036;-69
2023/03/29 13:57:40;;;;;;;4.38;2.30;;;;;;;;;;5011362;28;20026;-69
2023/03/29 14:00:16;;;;;;;3.88;2.40;;;;;;;;;;5011231;28;20105;-69
2023/03/29 14:02:45;;;;;;;3.80;1.95;;;;;;;;;;5011014;28;20037;-69
2023/03/29 14:05:13;;;;;;;5.28;2.42;;;;;;;;;;5011347;28;20029;-69
2023/03/29 14:07:41;;;;;;;3.50;2.45;;;;;;;;;;5010497;28;20382;-69
2023/03/29 14:10:07;;;;;;;3.72;2.15;;;;;;;;;;5011232;28;20474;-69
2023/03/29 14:12:36;;;;;;;3.75;2.30;;;;;;;;;;4993177;28;20528;-68
2023/03/29 14:15:04;;;;;;;3.60;2.30;;;;;;;;;;5011488;28;20064;-69
2023/03/29 14:17:30;;;;;;;5.97;2.60;;;;;;;;;;5018632;28;20108;-68
2023/03/29 14:19:59;;;;;;;4.43;2.63;;;;;;;;;;5030623;28;20048;-68
2023/03/29 14:22:30;;;;;;;3.45;2.13;;;;;;;;;;5030833;28;20498;-69
2023/03/29 14:24:57;;;;;;;4.43;2.50;;;;;;;;;;5030506;28;20452;-69
2023/03/29 14:27:23;;;;;;;5.68;2.92;;;;;;;;;;5025859;28;20041;-68
2023/03/29 14:29:50;;;;;;;4.15;1.95;;;;;;;;;;5010718;28;20018;-68
2023/03/29 14:32:17;;;;;;;3.53;2.35;;;;;;;;;;5010506;28;20033;-68
2023/03/29 14:34:47;;;;;;;3.33;2.10;;;;;;;;;;5010790;28;20033;-68
2023/03/29 14:37:15;;;;;;;4.03;2.65;;;;;;;;;;5011238;28;20026;-68
2023/03/29 14:39:42;;;;;;;4.43;3.10;;;;;;;;;;5030463;28;20033;-68
2023/03/29 14:42:16;;;;;;;3.25;1.98;;;;;;;;;;5030412;28;20041;-68
2023/03/29 14:44:43;;;;;;;4.45;2.58;;;;;;;;;;5025939;28;20064;-68
2023/03/29 14:47:15;;;;;;;3.85;2.22;;;;;;;;;;5011486;28;20024;-68
2023/03/29 14:49:41;;;;;;;3.63;2.15;;;;;;;;;;5014308;28;20026;-68
2023/03/29 14:52:08;;;;;;;2.83;2.17;;;;;;;;;;5014477;28;20026;-68
2023/03/29 14:54:35;;;;;;;4.35;2.30;;;;;;;;;;5014710;28;20354;-68
2023/03/29 14:57:07;;;;;;;3.42;1.88;;;;;;;;;;5014474;28;20040;-68